Strona główna
METAR-TAF:

METAR-TAF

Lotnisko :

Miyako-jima, Japonia

Szerokość geograficzna: 24-47N, Długość geograficzna: 125-17E, wysokość: 40 m

Aktualna obserwacja pogody

Raport powstał 9 godziny i 58 minut temu, godzina 11:00 UTC
Wiatr 9 kt od południe
Temperatura 29°C
Wilgotność 89%
Ciśnienie 1007 hPa
Widzialność 10 km lub więcej
Mało chmury na wysokości 900 ft
Przerywane chmury

METAR: ROMY 201100Z 19009KT 9999 FEW009 BKN/// 29/27 Q1007

czas: 05:58 (20:58 UTC)


TAF: brakujący

Obserwacja i prognoza pogody dla ponad 4000 lotnisk (raport METAR i TAF).

Dostępne stacje oznaczono żółtymi i czerwonymi punktami na mapie.

Najedź kursorem aby zobaczyć nazwę stacji.

Kliknij aby zobaczyć obserwacje i prognozy pogody.

Aby zmienić mapę: kliknij na zielony przycisk z czarnym krzyżykiem, aby powiększyć; na zielony przycisk z myślnikiem, aby pomniejszyć; na zielone strzałki, aby przejść do map sąsiednich.


METAR-TAF: